Time;durP1;ratioP1;P1;durP2;ratioP2;P2;SDS_P1;SDS_P2;PMS_P1;PMS_P2;Temp;Humidity;BMP_temperature;BMP_pressure;BME280_temperature;BME280_humidity;BME280_pressure;Samples;Min_cycle;Max_cycle;Signal;HPM_P1;HPM_P2
2021/05/20 00:00:52;;;;;;;0.90;0.70;;;;;;;;;;5053614;28;20462;-65
2021/05/20 00:03:18;;;;;;;0.55;0.45;;;;;;;;;;5035740;28;20422;-65
2021/05/20 00:05:45;;;;;;;1.27;0.95;;;;;;;;;;5053636;28;20223;-65
2021/05/20 00:08:11;;;;;;;0.80;0.50;;;;;;;;;;5053358;28;20670;-65
2021/05/20 00:10:37;;;;;;;0.80;0.80;;;;;;;;;;5034889;28;20437;-65
2021/05/20 00:13:03;;;;;;;0.40;0.40;;;;;;;;;;5052272;28;20180;-65
2021/05/20 00:15:29;;;;;;;0.52;0.52;;;;;;;;;;5053052;28;20679;-63
2021/05/20 00:17:55;;;;;;;2.63;0.60;;;;;;;;;;5033660;28;20200;-63
2021/05/20 00:20:21;;;;;;;0.85;0.85;;;;;;;;;;5037603;28;20223;-65
2021/05/20 00:22:47;;;;;;;0.60;0.60;;;;;;;;;;5052996;28;20186;-65
2021/05/20 00:25:13;;;;;;;0.77;0.77;;;;;;;;;;5052949;28;20218;-65
2021/05/20 00:27:39;;;;;;;0.80;0.80;;;;;;;;;;5053145;28;20419;-63
2021/05/20 00:30:07;;;;;;;0.60;0.60;;;;;;;;;;5053353;28;20199;-63
2021/05/20 00:32:33;;;;;;;0.70;0.70;;;;;;;;;;5053189;28;20650;-63
2021/05/20 00:34:59;;;;;;;0.40;0.40;;;;;;;;;;5053005;28;20283;-63
2021/05/20 00:37:25;;;;;;;0.97;0.87;;;;;;;;;;5052889;28;20650;-63
2021/05/20 00:39:52;;;;;;;0.73;0.73;;;;;;;;;;5052547;28;20461;-63
2021/05/20 00:42:18;;;;;;;0.90;0.90;;;;;;;;;;5052954;28;20430;-63
2021/05/20 00:44:53;;;;;;;0.93;0.90;;;;;;;;;;5052961;28;20262;-65
2021/05/20 00:47:26;;;;;;;0.50;0.50;;;;;;;;;;5052597;28;20237;-63
2021/05/20 00:49:53;;;;;;;0.60;0.60;;;;;;;;;;5052602;28;20658;-63
2021/05/20 00:52:19;;;;;;;0.50;0.50;;;;;;;;;;5052937;28;20255;-63
2021/05/20 00:54:48;;;;;;;0.70;0.70;;;;;;;;;;5052513;28;20717;-63
2021/05/20 00:57:15;;;;;;;0.60;0.50;;;;;;;;;;5052508;28;20593;-63
2021/05/20 00:59:41;;;;;;;0.40;0.40;;;;;;;;;;5052302;28;20213;-63
2021/05/20 01:02:07;;;;;;;0.40;0.40;;;;;;;;;;5052387;28;20207;-63
2021/05/20 01:04:33;;;;;;;0.50;0.50;;;;;;;;;;5052416;28;20211;-63
2021/05/20 01:06:59;;;;;;;0.50;0.50;;;;;;;;;;5051918;28;20210;-63
2021/05/20 01:09:26;;;;;;;0.73;0.73;;;;;;;;;;5052190;28;20427;-63
2021/05/20 01:11:52;;;;;;;0.50;0.50;;;;;;;;;;5052038;28;20266;-63
2021/05/20 01:14:18;;;;;;;0.50;0.50;;;;;;;;;;5052437;28;20196;-63
2021/05/20 01:16:46;;;;;;;0.50;0.40;;;;;;;;;;5052005;28;20233;-65
2021/05/20 01:19:12;;;;;;;0.60;0.45;;;;;;;;;;5034304;28;20472;-63
2021/05/20 01:21:40;;;;;;;0.67;0.67;;;;;;;;;;5051984;28;20612;-63
2021/05/20 01:24:06;;;;;;;0.85;0.85;;;;;;;;;;5051566;28;20454;-65
2021/05/20 01:26:36;;;;;;;0.30;0.30;;;;;;;;;;5051816;28;20759;-64
2021/05/20 01:29:02;;;;;;;2.05;1.15;;;;;;;;;;5051889;28;20179;-63
2021/05/20 01:31:28;;;;;;;0.43;0.43;;;;;;;;;;5052009;28;20188;-63
2021/05/20 01:33:54;;;;;;;0.50;0.50;;;;;;;;;;5051308;28;20300;-63
2021/05/20 01:36:29;;;;;;;1.20;0.57;;;;;;;;;;5051804;28;20477;-63
2021/05/20 01:39:00;;;;;;;0.85;0.50;;;;;;;;;;5051402;28;20424;-63
2021/05/20 01:41:26;;;;;;;0.65;0.65;;;;;;;;;;5051873;28;20643;-63
2021/05/20 01:43:52;;;;;;;0.73;0.73;;;;;;;;;;5051284;28;20350;-63
2021/05/20 01:46:19;;;;;;;0.80;0.80;;;;;;;;;;5051320;28;20219;-65
2021/05/20 01:48:46;;;;;;;1.25;0.73;;;;;;;;;;5051363;28;20801;-63
2021/05/20 01:51:13;;;;;;;0.40;0.40;;;;;;;;;;5051868;28;20183;-63
2021/05/20 01:53:40;;;;;;;1.00;1.00;;;;;;;;;;5051297;28;20208;-63
2021/05/20 01:56:07;;;;;;;1.02;0.60;;;;;;;;;;5051380;28;20282;-63
2021/05/20 01:58:34;;;;;;;0.63;0.63;;;;;;;;;;5051459;28;20168;-63
2021/05/20 02:01:00;;;;;;;0.68;0.68;;;;;;;;;;5051256;28;20203;-63
2021/05/20 02:03:26;;;;;;;0.67;0.67;;;;;;;;;;5051726;28;20179;-63
2021/05/20 02:05:52;;;;;;;0.60;0.60;;;;;;;;;;5051133;28;20520;-63
2021/05/20 02:08:18;;;;;;;0.60;0.60;;;;;;;;;;5051586;28;20237;-65
2021/05/20 02:10:44;;;;;;;0.50;0.50;;;;;;;;;;5051031;28;20175;-62
2021/05/20 02:13:10;;;;;;;0.93;0.80;;;;;;;;;;5051515;28;20171;-63
2021/05/20 02:15:39;;;;;;;0.65;0.65;;;;;;;;;;5050706;28;20693;-63
2021/05/20 02:18:06;;;;;;;0.57;0.57;;;;;;;;;;5051711;28;20176;-65
2021/05/20 02:20:33;;;;;;;0.38;0.38;;;;;;;;;;5051044;28;20280;-63
2021/05/20 02:22:59;;;;;;;0.60;0.60;;;;;;;;;;5051142;28;20550;-65
2021/05/20 02:25:25;;;;;;;0.60;0.60;;;;;;;;;;5050943;28;20218;-63
2021/05/20 02:27:51;;;;;;;0.40;0.40;;;;;;;;;;5051494;28;20261;-63
2021/05/20 02:30:17;;;;;;;0.40;0.40;;;;;;;;;;5051035;28;20263;-65
2021/05/20 02:32:44;;;;;;;0.50;0.50;;;;;;;;;;5051230;28;20429;-63
2021/05/20 02:35:10;;;;;;;0.35;0.35;;;;;;;;;;5051165;28;20214;-63
2021/05/20 02:37:37;;;;;;;0.60;0.60;;;;;;;;;;5053757;28;20178;-63
2021/05/20 02:40:06;;;;;;;1.10;1.00;;;;;;;;;;5054489;28;20207;-65
2021/05/20 02:42:33;;;;;;;0.60;0.60;;;;;;;;;;5054740;28;20215;-63
2021/05/20 02:44:59;;;;;;;0.73;0.73;;;;;;;;;;5054718;28;20230;-63
2021/05/20 02:47:25;;;;;;;0.57;0.55;;;;;;;;;;5054938;28;20212;-63
2021/05/20 02:49:51;;;;;;;0.50;0.50;;;;;;;;;;5054718;28;20182;-63
2021/05/20 02:52:17;;;;;;;0.93;0.70;;;;;;;;;;5054988;28;20210;-63
2021/05/20 02:54:43;;;;;;;0.57;0.57;;;;;;;;;;5054602;28;20422;-63
2021/05/20 02:57:09;;;;;;;0.77;0.77;;;;;;;;;;5054960;28;20179;-63
2021/05/20 02:59:36;;;;;;;0.40;0.40;;;;;;;;;;5054395;28;20187;-63
2021/05/20 03:02:04;;;;;;;0.80;0.80;;;;;;;;;;5054792;28;20182;-63
2021/05/20 03:04:34;;;;;;;0.95;0.95;;;;;;;;;;5054669;28;20693;-63
2021/05/20 03:07:01;;;;;;;0.50;0.50;;;;;;;;;;5054574;28;20175;-63
2021/05/20 03:09:27;;;;;;;0.40;0.40;;;;;;;;;;5036820;28;20176;-63
2021/05/20 03:11:53;;;;;;;0.50;0.50;;;;;;;;;;5054491;28;20187;-63
2021/05/20 03:14:19;;;;;;;0.50;0.50;;;;;;;;;;5054660;28;20184;-63
2021/05/20 03:16:45;;;;;;;0.45;0.45;;;;;;;;;;5036755;28;20337;-63
2021/05/20 03:19:11;;;;;;;0.50;0.50;;;;;;;;;;5054376;28;20275;-63
2021/05/20 03:21:37;;;;;;;1.02;0.93;;;;;;;;;;5036420;28;20682;-63
2021/05/20 03:24:03;;;;;;;0.60;0.60;;;;;;;;;;5054418;28;20178;-63
2021/05/20 03:26:29;;;;;;;0.52;0.52;;;;;;;;;;5076662;22;20255;-65
2021/05/20 03:28:55;;;;;;;0.40;0.40;;;;;;;;;;5053417;28;20262;-65
2021/05/20 03:31:22;;;;;;;1.00;1.00;;;;;;;;;;5054596;28;20646;-65
2021/05/20 03:33:48;;;;;;;0.45;0.45;;;;;;;;;;5036526;28;20202;-65
2021/05/20 03:36:14;;;;;;;0.60;0.60;;;;;;;;;;5053946;28;20229;-64
2021/05/20 03:38:40;;;;;;;0.60;0.60;;;;;;;;;;5053883;28;20215;-64
2021/05/20 03:41:06;;;;;;;0.82;0.82;;;;;;;;;;5054370;28;20464;-65
2021/05/20 03:43:32;;;;;;;0.50;0.50;;;;;;;;;;5053831;28;20190;-65
2021/05/20 03:45:58;;;;;;;0.60;0.60;;;;;;;;;;5054740;28;20200;-65
2021/05/20 03:48:24;;;;;;;0.50;0.50;;;;;;;;;;5054625;28;20184;-65
2021/05/20 03:50:51;;;;;;;1.45;0.85;;;;;;;;;;5054651;28;20600;-64
2021/05/20 03:53:17;;;;;;;0.60;0.60;;;;;;;;;;5036590;28;20264;-63
2021/05/20 03:55:43;;;;;;;0.50;0.50;;;;;;;;;;5052812;28;20562;-65
2021/05/20 03:58:09;;;;;;;0.40;0.40;;;;;;;;;;5054047;28;20682;-64
2021/05/20 04:00:35;;;;;;;0.75;0.75;;;;;;;;;;5053315;28;20204;-65
2021/05/20 04:03:01;;;;;;;0.65;0.65;;;;;;;;;;5053992;28;20178;-65
2021/05/20 04:05:27;;;;;;;0.50;0.50;;;;;;;;;;5052839;28;20203;-64
2021/05/20 04:07:53;;;;;;;0.80;0.80;;;;;;;;;;5053873;28;20770;-64
2021/05/20 04:10:19;;;;;;;0.90;0.90;;;;;;;;;;5053170;28;20210;-65
2021/05/20 04:12:45;;;;;;;0.63;0.63;;;;;;;;;;5052209;28;20180;-64
2021/05/20 04:15:12;;;;;;;0.50;0.50;;;;;;;;;;5053202;28;20593;-64
2021/05/20 04:17:38;;;;;;;0.80;0.80;;;;;;;;;;5049459;28;20180;-65
2021/05/20 04:20:04;;;;;;;0.50;0.50;;;;;;;;;;5053066;28;20207;-65
2021/05/20 04:22:30;;;;;;;0.40;0.40;;;;;;;;;;5053388;28;20172;-64
2021/05/20 04:24:56;;;;;;;0.50;0.50;;;;;;;;;;5035225;28;20175;-65
2021/05/20 04:27:22;;;;;;;0.77;0.77;;;;;;;;;;5052341;28;20959;-64
2021/05/20 04:29:48;;;;;;;0.50;0.50;;;;;;;;;;5052797;28;20674;-64
2021/05/20 04:32:14;;;;;;;0.70;0.70;;;;;;;;;;5052927;28;20179;-64
2021/05/20 04:34:42;;;;;;;0.60;0.60;;;;;;;;;;5052939;28;20688;-64
2021/05/20 04:37:08;;;;;;;0.93;0.80;;;;;;;;;;5052882;28;20198;-63
2021/05/20 04:39:35;;;;;;;0.60;0.60;;;;;;;;;;5052456;28;20204;-64
2021/05/20 04:42:01;;;;;;;0.63;0.55;;;;;;;;;;5052280;28;20182;-64
2021/05/20 04:44:28;;;;;;;0.50;0.50;;;;;;;;;;5052865;28;20180;-63
2021/05/20 04:46:54;;;;;;;0.60;0.60;;;;;;;;;;5051525;28;20216;-64
2021/05/20 04:49:20;;;;;;;0.60;0.60;;;;;;;;;;5052263;28;20191;-63
2021/05/20 04:51:46;;;;;;;1.30;1.05;;;;;;;;;;5052505;28;20634;-64
2021/05/20 04:54:12;;;;;;;0.50;0.50;;;;;;;;;;5052744;28;20206;-64
2021/05/20 04:56:38;;;;;;;0.50;0.50;;;;;;;;;;5052644;28;20199;-64
2021/05/20 04:59:05;;;;;;;0.50;0.50;;;;;;;;;;5051856;28;20977;-64
2021/05/20 05:01:32;;;;;;;0.70;0.60;;;;;;;;;;5052556;28;20208;-64
2021/05/20 05:03:58;;;;;;;0.60;0.60;;;;;;;;;;5052048;28;20188;-64
2021/05/20 05:06:24;;;;;;;0.40;0.40;;;;;;;;;;5051616;28;20540;-64
2021/05/20 05:08:50;;;;;;;0.50;0.50;;;;;;;;;;5052440;28;20410;-64
2021/05/20 05:11:16;;;;;;;0.57;0.57;;;;;;;;;;5046820;28;20198;-64
2021/05/20 05:13:42;;;;;;;0.75;0.75;;;;;;;;;;5052089;28;20762;-64
2021/05/20 05:16:08;;;;;;;0.60;0.60;;;;;;;;;;5052350;28;20202;-64
2021/05/20 05:18:34;;;;;;;0.47;0.47;;;;;;;;;;5051816;28;20438;-64
2021/05/20 05:21:02;;;;;;;0.47;0.47;;;;;;;;;;5052480;28;20868;-64
2021/05/20 05:23:28;;;;;;;0.70;0.70;;;;;;;;;;5052254;28;20179;-64
2021/05/20 05:25:54;;;;;;;0.45;0.45;;;;;;;;;;5052216;28;20586;-64
2021/05/20 05:28:20;;;;;;;0.40;0.40;;;;;;;;;;5051633;28;20183;-64
2021/05/20 05:30:47;;;;;;;0.40;0.40;;;;;;;;;;5051443;28;20176;-64
2021/05/20 05:33:13;;;;;;;0.60;0.52;;;;;;;;;;5051981;28;20413;-64
2021/05/20 05:35:39;;;;;;;0.57;0.57;;;;;;;;;;5052001;28;20562;-64
2021/05/20 05:38:05;;;;;;;0.50;0.50;;;;;;;;;;5052030;28;20183;-64
2021/05/20 05:40:31;;;;;;;0.40;0.40;;;;;;;;;;5043310;28;20496;-64
2021/05/20 05:42:57;;;;;;;0.50;0.40;;;;;;;;;;5050741;28;20218;-64
2021/05/20 05:45:23;;;;;;;0.47;0.47;;;;;;;;;;5051924;28;20261;-64
2021/05/20 05:47:49;;;;;;;0.60;0.52;;;;;;;;;;5051901;28;20557;-64
2021/05/20 05:50:15;;;;;;;0.50;0.50;;;;;;;;;;5051661;28;20179;-64
2021/05/20 05:52:42;;;;;;;0.40;0.40;;;;;;;;;;5051846;28;20407;-64
2021/05/20 05:55:08;;;;;;;0.63;0.63;;;;;;;;;;5051732;28;20216;-65
2021/05/20 05:57:35;;;;;;;0.40;0.40;;;;;;;;;;5051656;28;20175;-65
2021/05/20 06:00:01;;;;;;;0.73;0.73;;;;;;;;;;5051514;28;20207;-64
2021/05/20 06:02:27;;;;;;;0.60;0.50;;;;;;;;;;5051845;28;20543;-64
2021/05/20 06:04:53;;;;;;;0.60;0.60;;;;;;;;;;5051604;28;20171;-64
2021/05/20 06:07:20;;;;;;;1.02;1.02;;;;;;;;;;5051624;28;20572;-63
2021/05/20 06:09:46;;;;;;;0.45;0.45;;;;;;;;;;5051425;28;20217;-64
2021/05/20 06:12:12;;;;;;;0.80;0.80;;;;;;;;;;5033536;28;20212;-64
2021/05/20 06:14:40;;;;;;;0.75;0.60;;;;;;;;;;5050030;28;20275;-64
2021/05/20 06:17:09;;;;;;;0.63;0.63;;;;;;;;;;5051079;28;20332;-64
2021/05/20 06:19:35;;;;;;;0.60;0.60;;;;;;;;;;5050834;28;20164;-64
2021/05/20 06:22:01;;;;;;;0.60;0.60;;;;;;;;;;5050333;28;20601;-64
2021/05/20 06:24:27;;;;;;;0.50;0.50;;;;;;;;;;5051233;28;20262;-63
2021/05/20 06:26:53;;;;;;;0.67;0.67;;;;;;;;;;5050856;28;20293;-64
2021/05/20 06:29:19;;;;;;;0.60;0.60;;;;;;;;;;5050945;28;20426;-64
2021/05/20 06:31:45;;;;;;;0.50;0.50;;;;;;;;;;5051076;28;20546;-64
2021/05/20 06:34:11;;;;;;;0.57;0.57;;;;;;;;;;5051042;28;20180;-63
2021/05/20 06:36:37;;;;;;;0.70;0.70;;;;;;;;;;5049750;28;20283;-63
2021/05/20 06:39:05;;;;;;;1.33;0.95;;;;;;;;;;5050236;28;20427;-64
2021/05/20 06:41:31;;;;;;;0.60;0.60;;;;;;;;;;5050700;28;20200;-65
2021/05/20 06:43:57;;;;;;;0.95;0.60;;;;;;;;;;5050893;28;20168;-64
2021/05/20 06:46:23;;;;;;;0.70;0.70;;;;;;;;;;5050270;28;20263;-64
2021/05/20 06:48:49;;;;;;;0.63;0.63;;;;;;;;;;5050333;28;20402;-64
2021/05/20 06:51:15;;;;;;;0.60;0.60;;;;;;;;;;5050605;28;20417;-63
2021/05/20 06:53:41;;;;;;;1.13;1.05;;;;;;;;;;5050604;28;20790;-64
2021/05/20 06:56:15;;;;;;;1.02;0.60;;;;;;;;;;5050593;28;20211;-64
2021/05/20 07:01:26;;;;;;;0.52;0.52;;;;;;;;;;5050520;28;20261;-64
2021/05/20 07:03:52;;;;;;;0.57;0.57;;;;;;;;;;5050659;28;20172;-64
2021/05/20 07:06:18;;;;;;;0.77;0.57;;;;;;;;;;5049660;28;20441;-63
2021/05/20 07:08:45;;;;;;;0.77;0.73;;;;;;;;;;5048952;28;20472;-64
2021/05/20 07:11:11;;;;;;;0.75;0.75;;;;;;;;;;5050672;28;20175;-64
2021/05/20 07:13:37;;;;;;;0.43;0.40;;;;;;;;;;5050740;28;20172;-64
2021/05/20 07:16:03;;;;;;;0.50;0.50;;;;;;;;;;5050387;28;20431;-64
2021/05/20 07:18:29;;;;;;;0.50;0.50;;;;;;;;;;5050010;28;20218;-63
2021/05/20 07:20:55;;;;;;;0.67;0.67;;;;;;;;;;5050344;28;20228;-64
2021/05/20 07:23:21;;;;;;;0.73;0.63;;;;;;;;;;5052541;28;20505;-64
2021/05/20 07:25:47;;;;;;;1.05;0.95;;;;;;;;;;5054228;28;20654;-64
2021/05/20 07:28:13;;;;;;;0.80;0.80;;;;;;;;;;5047895;28;20173;-64
2021/05/20 07:30:40;;;;;;;0.68;0.68;;;;;;;;;;5033858;28;20180;-64
2021/05/20 07:33:06;;;;;;;0.60;0.60;;;;;;;;;;5034165;28;20169;-64
2021/05/20 07:35:32;;;;;;;0.63;0.63;;;;;;;;;;5033775;28;20192;-64
2021/05/20 07:37:58;;;;;;;0.50;0.50;;;;;;;;;;5033889;28;20222;-64
2021/05/20 07:40:24;;;;;;;0.50;0.50;;;;;;;;;;5033704;28;20655;-64
2021/05/20 07:42:50;;;;;;;0.70;0.50;;;;;;;;;;5033902;28;20404;-64
2021/05/20 07:45:17;;;;;;;0.70;0.57;;;;;;;;;;5033897;28;20185;-64
2021/05/20 07:47:44;;;;;;;0.60;0.60;;;;;;;;;;5015994;28;20277;-64
2021/05/20 07:50:10;;;;;;;1.00;1.00;;;;;;;;;;5033177;28;20222;-64
2021/05/20 07:52:36;;;;;;;0.90;0.90;;;;;;;;;;5033799;28;20590;-64
2021/05/20 07:55:03;;;;;;;0.70;0.52;;;;;;;;;;5033859;28;20408;-64
2021/05/20 07:57:29;;;;;;;0.80;0.80;;;;;;;;;;5033723;28;20174;-64
2021/05/20 07:59:55;;;;;;;0.80;0.80;;;;;;;;;;5033623;28;20223;-64
2021/05/20 08:04:53;;;;;;;0.60;0.60;;;;;;;;;;5034177;28;20401;-64
2021/05/20 08:10:05;;;;;;;0.73;0.73;;;;;;;;;;5033627;28;20763;-64
2021/05/20 08:12:31;;;;;;;0.80;0.80;;;;;;;;;;5033037;28;20423;-64
2021/05/20 08:14:57;;;;;;;0.77;0.77;;;;;;;;;;5033183;28;20407;-64
2021/05/20 08:17:23;;;;;;;1.17;0.60;;;;;;;;;;5033471;28;20802;-64
2021/05/20 08:19:49;;;;;;;0.40;0.40;;;;;;;;;;5033330;28;20412;-64
2021/05/20 08:22:15;;;;;;;0.73;0.70;;;;;;;;;;5029764;28;20546;-64
2021/05/20 08:24:41;;;;;;;0.50;0.50;;;;;;;;;;5053034;28;20441;-64
2021/05/20 08:27:11;;;;;;;0.60;0.60;;;;;;;;;;5053013;28;20513;-64
2021/05/20 08:29:37;;;;;;;0.60;0.60;;;;;;;;;;5052847;28;20406;-64
2021/05/20 08:32:03;;;;;;;0.50;0.50;;;;;;;;;;5052987;28;20191;-64
2021/05/20 08:34:29;;;;;;;0.60;0.60;;;;;;;;;;5051875;28;20260;-64
2021/05/20 08:36:55;;;;;;;0.50;0.50;;;;;;;;;;5052739;28;20263;-64
2021/05/20 08:39:21;;;;;;;0.40;0.40;;;;;;;;;;5052343;28;20410;-64
2021/05/20 08:41:48;;;;;;;1.50;0.50;;;;;;;;;;5052579;28;20241;-64
2021/05/20 08:44:17;;;;;;;0.40;0.40;;;;;;;;;;5052498;28;20211;-64
2021/05/20 08:46:43;;;;;;;0.88;0.68;;;;;;;;;;5052782;28;20203;-64
2021/05/20 08:49:14;;;;;;;0.70;0.70;;;;;;;;;;5052383;28;20164;-65
2021/05/20 08:51:41;;;;;;;0.60;0.60;;;;;;;;;;5052596;28;20447;-65
2021/05/20 08:54:08;;;;;;;0.50;0.43;;;;;;;;;;5052100;28;20403;-65
2021/05/20 08:56:34;;;;;;;0.40;0.40;;;;;;;;;;5052116;28;20436;-65
2021/05/20 08:59:00;;;;;;;0.40;0.40;;;;;;;;;;5051050;28;20432;-64
2021/05/20 09:01:39;;;;;;;0.97;0.50;;;;;;;;;;5052394;28;20444;-65
2021/05/20 09:04:06;;;;;;;0.40;0.40;;;;;;;;;;5052186;28;20410;-65
2021/05/20 09:06:39;;;;;;;0.40;0.30;;;;;;;;;;5052555;28;20397;-65
2021/05/20 09:09:15;;;;;;;0.50;0.50;;;;;;;;;;5051825;28;20917;-65
2021/05/20 09:11:49;;;;;;;0.70;0.60;;;;;;;;;;5052099;28;20402;-65
2021/05/20 09:14:27;;;;;;;0.50;0.50;;;;;;;;;;5052078;28;20519;-65
2021/05/20 09:17:07;;;;;;;0.93;0.50;;;;;;;;;;5051882;28;20433;-65
2021/05/20 09:19:33;;;;;;;0.53;0.53;;;;;;;;;;5052049;28;20409;-66
2021/05/20 09:22:02;;;;;;;0.70;0.50;;;;;;;;;;5051687;28;20580;-65
2021/05/20 09:24:47;;;;;;;0.60;0.40;;;;;;;;;;5051917;28;20403;-66
2021/05/20 09:27:31;;;;;;;0.40;0.40;;;;;;;;;;5052652;28;20468;-65
2021/05/20 09:30:12;;;;;;;0.50;0.40;;;;;;;;;;5050679;28;20407;-65
2021/05/20 09:32:42;;;;;;;0.43;0.43;;;;;;;;;;5052022;28;20460;-65
2021/05/20 09:35:08;;;;;;;0.85;0.50;;;;;;;;;;5051793;28;20426;-65
2021/05/20 09:37:44;;;;;;;0.70;0.70;;;;;;;;;;5051739;28;20669;-65
2021/05/20 09:40:10;;;;;;;0.85;0.60;;;;;;;;;;5049790;28;20587;-65
2021/05/20 09:42:36;;;;;;;1.23;0.70;;;;;;;;;;5051336;28;20257;-65
2021/05/20 09:45:11;;;;;;;1.90;1.00;;;;;;;;;;5051093;28;20863;-65
2021/05/20 09:47:38;;;;;;;0.83;0.70;;;;;;;;;;5051356;28;20896;-65
2021/05/20 09:50:05;;;;;;;2.05;0.60;;;;;;;;;;5051315;28;20423;-65
2021/05/20 09:52:32;;;;;;;0.60;0.40;;;;;;;;;;5051197;28;20164;-65
2021/05/20 09:54:58;;;;;;;2.00;0.70;;;;;;;;;;5051032;28;20219;-65
2021/05/20 09:57:25;;;;;;;0.60;0.60;;;;;;;;;;5051233;28;20936;-65
2021/05/20 10:00:11;;;;;;;0.50;0.50;;;;;;;;;;5050695;28;20398;-65
2021/05/20 10:02:41;;;;;;;0.40;0.40;;;;;;;;;;5051243;28;20414;-65
2021/05/20 10:05:21;;;;;;;0.50;0.40;;;;;;;;;;5051086;28;20191;-65
2021/05/20 10:07:47;;;;;;;0.47;0.47;;;;;;;;;;5051086;28;20534;-65
2021/05/20 10:10:14;;;;;;;1.03;0.70;;;;;;;;;;5050921;28;20424;-65
2021/05/20 10:12:43;;;;;;;0.50;0.40;;;;;;;;;;5051037;28;20952;-63
2021/05/20 10:15:11;;;;;;;0.80;0.60;;;;;;;;;;5051006;28;20188;-63
2021/05/20 10:17:38;;;;;;;0.43;0.43;;;;;;;;;;5051205;28;20439;-64
2021/05/20 10:20:05;;;;;;;0.60;0.60;;;;;;;;;;5050814;28;20453;-64
2021/05/20 10:22:33;;;;;;;0.50;0.50;;;;;;;;;;5051400;28;20398;-65
2021/05/20 10:24:59;;;;;;;0.70;0.70;;;;;;;;;;5051132;28;20383;-65
2021/05/20 10:27:26;;;;;;;0.40;0.40;;;;;;;;;;5051157;28;20892;-65
2021/05/20 10:29:52;;;;;;;0.60;0.50;;;;;;;;;;5050764;28;20853;-65
2021/05/20 10:32:18;;;;;;;0.60;0.50;;;;;;;;;;5051145;28;20414;-64
2021/05/20 10:34:57;;;;;;;0.50;0.40;;;;;;;;;;5051167;28;20421;-64
2021/05/20 10:37:26;;;;;;;0.50;0.40;;;;;;;;;;5049962;28;20369;-64
2021/05/20 10:39:53;;;;;;;0.60;0.40;;;;;;;;;;5051210;28;20986;-64
2021/05/20 10:42:34;;;;;;;1.33;0.50;;;;;;;;;;5050965;28;20373;-64
2021/05/20 10:45:15;;;;;;;1.53;0.60;;;;;;;;;;5051038;28;20399;-65
2021/05/20 10:48:00;;;;;;;0.60;0.50;;;;;;;;;;5050985;28;20802;-65
2021/05/20 10:50:46;;;;;;;0.70;0.50;;;;;;;;;;5050864;28;20832;-65
2021/05/20 10:53:12;;;;;;;1.43;0.63;;;;;;;;;;5050749;28;20414;-65
2021/05/20 10:55:38;;;;;;;0.60;0.40;;;;;;;;;;5050649;28;20416;-65
2021/05/20 10:58:04;;;;;;;0.40;0.33;;;;;;;;;;5052644;28;20407;-64
2021/05/20 11:00:31;;;;;;;0.50;0.40;;;;;;;;;;5054462;28;20428;-64
2021/05/20 11:02:59;;;;;;;0.50;0.40;;;;;;;;;;5054751;28;20385;-64
2021/05/20 11:05:43;;;;;;;0.50;0.40;;;;;;;;;;5054708;28;20401;-64
2021/05/20 11:08:28;;;;;;;0.60;0.50;;;;;;;;;;5054483;28;20551;-64
2021/05/20 11:10:54;;;;;;;0.40;0.40;;;;;;;;;;5054569;28;20577;-64
2021/05/20 11:13:50;;;;;;;0.50;0.50;;;;;;;;;;5054517;28;20399;-64
2021/05/20 11:16:16;;;;;;;0.60;0.50;;;;;;;;;;5023314;28;20455;-64
2021/05/20 11:18:43;;;;;;;0.70;0.40;;;;;;;;;;5033887;28;21299;-64
2021/05/20 11:21:09;;;;;;;0.47;0.37;;;;;;;;;;5034102;28;20438;-64
2021/05/20 11:23:39;;;;;;;1.10;0.80;;;;;;;;;;5034133;28;20392;-66
2021/05/20 11:26:07;;;;;;;0.67;0.50;;;;;;;;;;5033942;28;20443;-64
2021/05/20 11:28:40;;;;;;;0.40;0.40;;;;;;;;;;5033980;28;20914;-64
2021/05/20 11:31:06;;;;;;;0.60;0.50;;;;;;;;;;5033956;28;20410;-64
2021/05/20 11:33:45;;;;;;;1.27;0.60;;;;;;;;;;5034168;28;20417;-64
2021/05/20 11:36:13;;;;;;;0.40;0.40;;;;;;;;;;5034253;28;20933;-64
2021/05/20 11:38:51;;;;;;;1.47;0.60;;;;;;;;;;5032777;28;20954;-64
2021/05/20 11:41:17;;;;;;;0.50;0.50;;;;;;;;;;5034250;28;20463;-64
2021/05/20 11:43:43;;;;;;;0.50;0.50;;;;;;;;;;5033275;28;20184;-64
2021/05/20 11:46:19;;;;;;;0.80;0.60;;;;;;;;;;5033776;28;20185;-64
2021/05/20 11:49:18;;;;;;;0.60;0.60;;;;;;;;;;5033626;28;20417;-64
2021/05/20 11:51:46;;;;;;;0.50;0.50;;;;;;;;;;4990236;28;20423;-64
2021/05/20 11:54:15;;;;;;;0.50;0.50;;;;;;;;;;5033679;28;20427;-64
2021/05/20 11:56:43;;;;;;;0.40;0.40;;;;;;;;;;5033697;28;20427;-63
2021/05/20 11:59:09;;;;;;;0.50;0.40;;;;;;;;;;5033389;28;20411;-64
2021/05/20 12:01:36;;;;;;;0.60;0.40;;;;;;;;;;5033582;28;20455;-64
2021/05/20 12:04:03;;;;;;;0.40;0.40;;;;;;;;;;5033626;28;20775;-64
2021/05/20 12:06:29;;;;;;;0.50;0.50;;;;;;;;;;5033086;28;20423;-64
2021/05/20 12:09:05;;;;;;;0.50;0.40;;;;;;;;;;5032854;28;20430;-64
2021/05/20 12:11:31;;;;;;;0.50;0.50;;;;;;;;;;5033854;28;20973;-64
2021/05/20 12:13:57;;;;;;;0.50;0.40;;;;;;;;;;5033673;28;20432;-64
2021/05/20 12:16:31;;;;;;;1.03;0.40;;;;;;;;;;5015665;28;20439;-64
2021/05/20 12:18:58;;;;;;;4.53;0.50;;;;;;;;;;5031688;28;20415;-64
2021/05/20 12:21:24;;;;;;;0.87;0.60;;;;;;;;;;5033568;28;20528;-64
2021/05/20 12:24:08;;;;;;;0.40;0.40;;;;;;;;;;5033492;28;20408;-64
2021/05/20 12:26:34;;;;;;;0.40;0.33;;;;;;;;;;5033176;28;20968;-64
2021/05/20 12:29:00;;;;;;;0.40;0.40;;;;;;;;;;5033232;28;20917;-64
2021/05/20 12:31:26;;;;;;;0.80;0.80;;;;;;;;;;5033354;28;20404;-64
2021/05/20 12:33:52;;;;;;;0.47;0.47;;;;;;;;;;5033441;28;20411;-64
2021/05/20 12:36:28;;;;;;;0.40;0.30;;;;;;;;;;5033020;28;20441;-64
2021/05/20 12:38:54;;;;;;;0.50;0.40;;;;;;;;;;5032536;28;20410;-64
2021/05/20 12:41:21;;;;;;;0.40;0.30;;;;;;;;;;5032953;28;20467;-64
2021/05/20 12:43:47;;;;;;;0.40;0.40;;;;;;;;;;5032777;28;20408;-64
2021/05/20 12:46:14;;;;;;;0.90;0.67;;;;;;;;;;5032933;28;20469;-64
2021/05/20 12:48:40;;;;;;;0.40;0.37;;;;;;;;;;5032571;28;20411;-64
2021/05/20 12:51:08;;;;;;;0.50;0.50;;;;;;;;;;5032997;28;20414;-64
2021/05/20 12:53:38;;;;;;;0.40;0.40;;;;;;;;;;5032751;28;20418;-64
2021/05/20 12:56:06;;;;;;;0.70;0.50;;;;;;;;;;5032641;28;20711;-64
2021/05/20 12:58:51;;;;;;;0.85;0.40;;;;;;;;;;5051626;28;20433;-64
2021/05/20 13:01:18;;;;;;;0.50;0.40;;;;;;;;;;5052265;28;20242;-63
2021/05/20 13:03:46;;;;;;;0.50;0.50;;;;;;;;;;5052582;28;20431;-63
2021/05/20 13:06:20;;;;;;;0.40;0.40;;;;;;;;;;5052461;28;20454;-64
2021/05/20 13:08:46;;;;;;;0.40;0.40;;;;;;;;;;5051964;28;20410;-64
2021/05/20 13:11:18;;;;;;;0.40;0.40;;;;;;;;;;5052070;28;20389;-64
2021/05/20 13:13:47;;;;;;;0.50;0.40;;;;;;;;;;5052612;28;20425;-64
2021/05/20 13:16:35;;;;;;;0.40;0.40;;;;;;;;;;5052120;28;20430;-64
2021/05/20 13:24:32;;;;;;;0.40;0.40;;;;;;;;;;5051735;28;20484;-64
2021/05/20 13:26:58;;;;;;;0.67;0.67;;;;;;;;;;5051537;28;20446;-64
2021/05/20 13:29:24;;;;;;;1.63;0.70;;;;;;;;;;5051349;28;20820;-64
2021/05/20 13:31:51;;;;;;;0.53;0.53;;;;;;;;;;5051449;28;20440;-64
2021/05/20 13:34:17;;;;;;;0.47;0.47;;;;;;;;;;5051784;28;20402;-63
2021/05/20 13:36:44;;;;;;;0.68;0.68;;;;;;;;;;5051392;28;20472;-64
2021/05/20 13:39:10;;;;;;;0.50;0.50;;;;;;;;;;5050937;28;20207;-64
2021/05/20 13:41:37;;;;;;;0.60;0.60;;;;;;;;;;5050938;28;20203;-64
2021/05/20 13:44:04;;;;;;;0.70;0.60;;;;;;;;;;5051204;28;20403;-64
2021/05/20 13:46:30;;;;;;;0.40;0.40;;;;;;;;;;5051282;28;20422;-64
2021/05/20 13:48:56;;;;;;;0.40;0.40;;;;;;;;;;5051229;28;20413;-64
2021/05/20 13:51:22;;;;;;;1.30;1.20;;;;;;;;;;5051309;28;20403;-64
2021/05/20 13:53:49;;;;;;;0.60;0.60;;;;;;;;;;5051258;28;20415;-64
2021/05/20 13:56:16;;;;;;;0.80;0.50;;;;;;;;;;5051166;28;20504;-64
2021/05/20 13:58:42;;;;;;;0.67;0.67;;;;;;;;;;5050905;28;20183;-64
2021/05/20 14:01:08;;;;;;;0.60;0.60;;;;;;;;;;5051037;28;20938;-64
2021/05/20 14:03:36;;;;;;;0.50;0.50;;;;;;;;;;5051201;28;20403;-64
2021/05/20 14:06:02;;;;;;;3.13;0.90;;;;;;;;;;5050938;28;20431;-64
2021/05/20 14:08:28;;;;;;;0.47;0.47;;;;;;;;;;5051330;28;20900;-65
2021/05/20 14:10:55;;;;;;;0.60;0.60;;;;;;;;;;5050963;28;20791;-64
2021/05/20 14:13:21;;;;;;;0.50;0.50;;;;;;;;;;5050919;28;20441;-64
2021/05/20 14:15:47;;;;;;;1.00;0.50;;;;;;;;;;5050557;28;20918;-64
2021/05/20 14:18:15;;;;;;;0.43;0.40;;;;;;;;;;5050976;28;20406;-64
2021/05/20 14:20:41;;;;;;;0.60;0.60;;;;;;;;;;5050601;28;20458;-64
2021/05/20 14:23:07;;;;;;;0.60;0.60;;;;;;;;;;5050967;28;20234;-64
2021/05/20 14:25:33;;;;;;;0.53;0.53;;;;;;;;;;5050764;28;20278;-64
2021/05/20 14:27:59;;;;;;;0.57;0.57;;;;;;;;;;5050722;28;20754;-64
2021/05/20 14:30:25;;;;;;;0.50;0.50;;;;;;;;;;5050674;28;20414;-64
2021/05/20 14:32:51;;;;;;;0.63;0.50;;;;;;;;;;5052589;28;20789;-64
2021/05/20 14:35:17;;;;;;;0.70;0.70;;;;;;;;;;5054896;28;20513;-64
2021/05/20 14:37:43;;;;;;;0.67;0.67;;;;;;;;;;5055124;28;20436;-64
2021/05/20 14:40:09;;;;;;;0.67;0.60;;;;;;;;;;5054801;28;20392;-64
2021/05/20 14:42:35;;;;;;;0.50;0.40;;;;;;;;;;5054874;28;20388;-64
2021/05/20 14:45:03;;;;;;;0.80;0.80;;;;;;;;;;5054749;28;20410;-64
2021/05/20 14:47:32;;;;;;;0.57;0.57;;;;;;;;;;5054666;28;20543;-64
2021/05/20 14:50:00;;;;;;;0.50;0.50;;;;;;;;;;5054663;28;20974;-64
2021/05/20 14:52:36;;;;;;;0.50;0.50;;;;;;;;;;5054750;28;20441;-64
2021/05/20 14:55:12;;;;;;;0.97;0.87;;;;;;;;;;5054475;28;20434;-63
2021/05/20 15:08:31;;;;;;;0.43;0.43;;;;;;;;;;5054154;28;20466;-64
2021/05/20 15:13:37;;;;;;;0.60;0.60;;;;;;;;;;5054250;28;20402;-64